Terminal Aerodrome Forecast
Issued by NWS

Home | Current Version | Previous Version | Text Only | Print | Product List | Glossary On
Versions: 1 2 3 4 5 6 7 8 9 10 11 12 13 14 15 16 17 18 19 20 21 22 23 24 25 26 27 28 29 30 31
279
FTUS43 KDVN 251549 AAB
TAFBRL
TAF AMD
KBRL 251549Z 2516/2612 04012KT 4SM BR OVC004
     FM251800 05013G20KT 5SM BR OVC009
     FM252200 07012KT P6SM OVC025
     FM260300 08008KT P6SM OVC008=

USA.gov is the U.S. government's official web portal to all federal, state and local government web resources and services.